sensor_id;sensor_type;location;lat;lon;timestamp;pressure;altitude;pressure_sealevel;temperature;humidity
7182;BME280;3632;42.724;23.298;2023-06-14T00:01:07;95079.94;;;18.73;100.00
7182;BME280;3632;42.724;23.298;2023-06-14T00:03:35;95071.81;;;18.61;100.00
7182;BME280;3632;42.724;23.298;2023-06-14T00:06:01;95065.38;;;18.57;100.00
7182;BME280;3632;42.724;23.298;2023-06-14T00:08:28;95021.03;;;18.31;100.00
7182;BME280;3632;42.724;23.298;2023-06-14T00:10:56;95069.22;;;18.61;100.00
7182;BME280;3632;42.724;23.298;2023-06-14T00:13:23;95072.47;;;18.55;100.00
7182;BME280;3632;42.724;23.298;2023-06-14T00:15:50;95065.53;;;18.56;100.00
7182;BME280;3632;42.724;23.298;2023-06-14T00:18:20;95066.19;;;18.58;100.00
7182;BME280;3632;42.724;23.298;2023-06-14T00:20:50;95037.34;;;18.46;100.00
7182;BME280;3632;42.724;23.298;2023-06-14T00:23:17;95111.41;;;18.54;100.00
7182;BME280;3632;42.724;23.298;2023-06-14T00:25:43;95070.84;;;18.62;100.00
7182;BME280;3632;42.724;23.298;2023-06-14T00:28:12;95063.09;;;18.62;100.00
7182;BME280;3632;42.724;23.298;2023-06-14T00:30:38;95056.69;;;18.50;100.00
7182;BME280;3632;42.724;23.298;2023-06-14T00:33:05;95051.72;;;18.49;100.00
7182;BME280;3632;42.724;23.298;2023-06-14T00:35:32;95060.31;;;18.41;100.00
7182;BME280;3632;42.724;23.298;2023-06-14T00:37:59;94910.38;;;17.30;100.00
7182;BME280;3632;42.724;23.298;2023-06-14T00:40:27;95052.34;;;18.28;100.00
7182;BME280;3632;42.724;23.298;2023-06-14T00:42:53;95047.00;;;18.07;100.00
7182;BME280;3632;42.724;23.298;2023-06-14T00:45:21;95048.91;;;17.90;100.00
7182;BME280;3632;42.724;23.298;2023-06-14T00:47:49;95050.91;;;18.03;100.00
7182;BME280;3632;42.724;23.298;2023-06-14T00:50:18;95031.25;;;18.02;100.00
7182;BME280;3632;42.724;23.298;2023-06-14T00:52:46;94965.09;;;17.63;100.00
7182;BME280;3632;42.724;23.298;2023-06-14T00:55:13;95048.69;;;18.22;100.00
7182;BME280;3632;42.724;23.298;2023-06-14T00:57:40;95048.16;;;18.27;100.00
7182;BME280;3632;42.724;23.298;2023-06-14T01:00:08;94883.00;;;16.99;100.00
7182;BME280;3632;42.724;23.298;2023-06-14T01:02:37;95004.06;;;17.91;100.00
7182;BME280;3632;42.724;23.298;2023-06-14T01:05:04;95038.81;;;18.03;100.00
7182;BME280;3632;42.724;23.298;2023-06-14T01:07:40;95050.38;;;18.30;100.00
7182;BME280;3632;42.724;23.298;2023-06-14T01:10:28;94973.44;;;17.73;100.00
7182;BME280;3632;42.724;23.298;2023-06-14T01:13:03;95043.28;;;18.32;100.00
7182;BME280;3632;42.724;23.298;2023-06-14T01:15:31;95041.97;;;18.36;100.00
7182;BME280;3632;42.724;23.298;2023-06-14T01:18:00;95006.88;;;17.82;100.00
7182;BME280;3632;42.724;23.298;2023-06-14T01:20:30;95055.16;;;18.41;100.00
7182;BME280;3632;42.724;23.298;2023-06-14T01:22:59;95044.63;;;18.28;100.00
7182;BME280;3632;42.724;23.298;2023-06-14T01:25:26;95047.13;;;18.36;100.00
7182;BME280;3632;42.724;23.298;2023-06-14T01:27:57;94993.38;;;18.02;100.00
7182;BME280;3632;42.724;23.298;2023-06-14T01:30:25;95039.91;;;18.32;100.00
7182;BME280;3632;42.724;23.298;2023-06-14T01:32:54;95043.91;;;18.34;100.00
7182;BME280;3632;42.724;23.298;2023-06-14T01:35:22;95051.94;;;18.39;100.00
7182;BME280;3632;42.724;23.298;2023-06-14T01:37:50;95045.53;;;18.35;100.00
7182;BME280;3632;42.724;23.298;2023-06-14T01:40:19;95039.78;;;18.02;100.00
7182;BME280;3632;42.724;23.298;2023-06-14T01:42:47;95044.88;;;17.88;100.00
7182;BME280;3632;42.724;23.298;2023-06-14T01:45:16;95026.81;;;17.49;100.00
7182;BME280;3632;42.724;23.298;2023-06-14T01:47:44;95050.47;;;17.91;100.00
7182;BME280;3632;42.724;23.298;2023-06-14T01:50:11;95046.88;;;18.00;100.00
7182;BME280;3632;42.724;23.298;2023-06-14T01:52:38;95073.47;;;18.01;100.00
7182;BME280;3632;42.724;23.298;2023-06-14T01:55:06;95052.41;;;18.20;100.00
7182;BME280;3632;42.724;23.298;2023-06-14T01:57:34;95052.06;;;18.23;100.00
7182;BME280;3632;42.724;23.298;2023-06-14T02:00:01;95064.16;;;18.22;100.00
7182;BME280;3632;42.724;23.298;2023-06-14T02:02:29;95056.41;;;18.22;100.00
7182;BME280;3632;42.724;23.298;2023-06-14T02:04:56;95057.22;;;18.23;100.00
7182;BME280;3632;42.724;23.298;2023-06-14T02:07:22;95067.53;;;18.23;100.00
7182;BME280;3632;42.724;23.298;2023-06-14T02:09:49;95075.91;;;18.25;100.00
7182;BME280;3632;42.724;23.298;2023-06-14T02:12:16;95075.56;;;18.28;100.00
7182;BME280;3632;42.724;23.298;2023-06-14T02:14:44;95071.09;;;18.22;100.00
7182;BME280;3632;42.724;23.298;2023-06-14T02:17:11;95074.69;;;18.13;100.00
7182;BME280;3632;42.724;23.298;2023-06-14T02:19:37;95096.38;;;17.96;100.00
7182;BME280;3632;42.724;23.298;2023-06-14T02:22:04;95080.53;;;17.76;100.00
7182;BME280;3632;42.724;23.298;2023-06-14T02:24:31;95091.91;;;17.90;100.00
7182;BME280;3632;42.724;23.298;2023-06-14T02:26:58;95080.09;;;17.95;100.00
7182;BME280;3632;42.724;23.298;2023-06-14T02:29:25;95080.41;;;18.00;100.00
7182;BME280;3632;42.724;23.298;2023-06-14T02:31:53;95082.47;;;18.05;100.00
7182;BME280;3632;42.724;23.298;2023-06-14T02:34:20;95076.47;;;18.12;100.00
7182;BME280;3632;42.724;23.298;2023-06-14T02:36:47;95080.78;;;18.20;100.00
7182;BME280;3632;42.724;23.298;2023-06-14T02:39:14;95081.41;;;18.22;100.00
7182;BME280;3632;42.724;23.298;2023-06-14T02:41:40;95079.78;;;18.21;100.00
7182;BME280;3632;42.724;23.298;2023-06-14T02:44:07;95079.78;;;18.21;100.00
7182;BME280;3632;42.724;23.298;2023-06-14T02:46:34;95049.34;;;17.94;100.00
7182;BME280;3632;42.724;23.298;2023-06-14T02:49:02;95072.97;;;18.05;100.00
7182;BME280;3632;42.724;23.298;2023-06-14T02:51:29;95070.09;;;18.00;100.00
7182;BME280;3632;42.724;23.298;2023-06-14T02:53:55;95071.25;;;17.98;100.00
7182;BME280;3632;42.724;23.298;2023-06-14T02:56:22;95070.69;;;17.79;100.00
7182;BME280;3632;42.724;23.298;2023-06-14T02:58:51;95077.50;;;17.72;100.00
7182;BME280;3632;42.724;23.298;2023-06-14T03:01:18;95085.81;;;17.83;100.00
7182;BME280;3632;42.724;23.298;2023-06-14T03:03:46;95080.44;;;17.61;100.00
7182;BME280;3632;42.724;23.298;2023-06-14T03:06:14;95087.03;;;17.56;100.00
7182;BME280;3632;42.724;23.298;2023-06-14T03:08:42;95027.97;;;16.99;100.00
7182;BME280;3632;42.724;23.298;2023-06-14T03:11:09;95106.34;;;17.05;100.00
7182;BME280;3632;42.724;23.298;2023-06-14T03:13:36;95088.81;;;17.63;100.00
7182;BME280;3632;42.724;23.298;2023-06-14T03:16:04;95096.78;;;17.85;100.00
7182;BME280;3632;42.724;23.298;2023-06-14T03:18:31;95033.25;;;17.53;100.00
7182;BME280;3632;42.724;23.298;2023-06-14T03:21:00;95008.63;;;17.50;100.00
7182;BME280;3632;42.724;23.298;2023-06-14T03:23:29;95031.44;;;17.69;100.00
7182;BME280;3632;42.724;23.298;2023-06-14T03:25:56;95108.28;;;18.05;100.00
7182;BME280;3632;42.724;23.298;2023-06-14T03:28:23;95123.06;;;17.80;100.00
7182;BME280;3632;42.724;23.298;2023-06-14T03:30:51;94960.59;;;16.87;100.00
7182;BME280;3632;42.724;23.298;2023-06-14T03:33:18;94763.81;;;15.25;100.00
7182;BME280;3632;42.724;23.298;2023-06-14T03:35:46;95097.22;;;18.19;100.00
7182;BME280;3632;42.724;23.298;2023-06-14T03:38:13;95101.06;;;18.23;100.00
7182;BME280;3632;42.724;23.298;2023-06-14T03:40:41;95129.09;;;18.26;100.00
7182;BME280;3632;42.724;23.298;2023-06-14T03:43:09;94943.69;;;17.24;100.00
7182;BME280;3632;42.724;23.298;2023-06-14T03:45:36;95011.19;;;17.58;100.00
7182;BME280;3632;42.724;23.298;2023-06-14T03:48:03;95115.81;;;18.14;100.00
7182;BME280;3632;42.724;23.298;2023-06-14T03:50:32;95097.19;;;18.27;100.00
7182;BME280;3632;42.724;23.298;2023-06-14T03:52:59;95063.97;;;18.01;100.00
7182;BME280;3632;42.724;23.298;2023-06-14T03:55:26;94793.84;;;16.28;100.00
7182;BME280;3632;42.724;23.298;2023-06-14T03:57:55;95101.81;;;18.32;100.00
7182;BME280;3632;42.724;23.298;2023-06-14T04:00:21;95024.44;;;17.86;100.00
7182;BME280;3632;42.724;23.298;2023-06-14T04:02:48;95051.72;;;18.03;100.00
7182;BME280;3632;42.724;23.298;2023-06-14T04:05:15;95018.28;;;17.87;100.00
7182;BME280;3632;42.724;23.298;2023-06-14T04:07:44;95105.41;;;18.53;100.00
7182;BME280;3632;42.724;23.298;2023-06-14T04:10:15;94589.22;;;15.33;100.00
7182;BME280;3632;42.724;23.298;2023-06-14T04:12:42;95103.66;;;18.23;100.00
7182;BME280;3632;42.724;23.298;2023-06-14T04:15:11;95111.84;;;17.96;100.00
7182;BME280;3632;42.724;23.298;2023-06-14T04:17:38;95105.69;;;18.05;100.00
7182;BME280;3632;42.724;23.298;2023-06-14T04:20:06;95075.38;;;17.76;100.00
7182;BME280;3632;42.724;23.298;2023-06-14T04:22:35;95101.06;;;18.23;100.00
7182;BME280;3632;42.724;23.298;2023-06-14T04:25:02;95109.16;;;18.20;100.00
7182;BME280;3632;42.724;23.298;2023-06-14T04:27:31;95111.22;;;18.24;100.00
7182;BME280;3632;42.724;23.298;2023-06-14T04:30:01;95110.78;;;18.44;100.00
7182;BME280;3632;42.724;23.298;2023-06-14T04:32:29;95070.03;;;18.08;100.00
7182;BME280;3632;42.724;23.298;2023-06-14T04:34:58;95112.72;;;18.42;100.00
7182;BME280;3632;42.724;23.298;2023-06-14T04:37:27;95100.97;;;18.39;100.00
7182;BME280;3632;42.724;23.298;2023-06-14T04:39:55;95113.94;;;18.31;100.00
7182;BME280;3632;42.724;23.298;2023-06-14T04:42:23;95111.34;;;18.31;100.00
7182;BME280;3632;42.724;23.298;2023-06-14T04:44:56;95109.50;;;18.40;100.00
7182;BME280;3632;42.724;23.298;2023-06-14T04:47:26;95088.53;;;18.20;100.00
7182;BME280;3632;42.724;23.298;2023-06-14T04:49:57;95107.00;;;18.32;100.00
7182;BME280;3632;42.724;23.298;2023-06-14T04:52:25;94754.13;;;15.83;100.00
7182;BME280;3632;42.724;23.298;2023-06-14T04:54:55;95121.66;;;18.31;100.00
7182;BME280;3632;42.724;23.298;2023-06-14T04:57:22;95130.97;;;18.40;100.00
7182;BME280;3632;42.724;23.298;2023-06-14T04:59:50;95081.53;;;18.29;100.00
7182;BME280;3632;42.724;23.298;2023-06-14T05:02:21;95119.53;;;18.65;100.00
7182;BME280;3632;42.724;23.298;2023-06-14T05:04:49;95077.69;;;18.47;100.00
7182;BME280;3632;42.724;23.298;2023-06-14T05:07:17;95127.31;;;18.80;100.00
7182;BME280;3632;42.724;23.298;2023-06-14T05:09:44;95128.03;;;18.89;100.00
7182;BME280;3632;42.724;23.298;2023-06-14T05:12:11;95129.72;;;18.82;100.00
7182;BME280;3632;42.724;23.298;2023-06-14T05:14:38;95181.19;;;18.83;100.00
7182;BME280;3632;42.724;23.298;2023-06-14T05:17:06;95131.34;;;18.83;100.00
7182;BME280;3632;42.724;23.298;2023-06-14T05:19:32;95137.25;;;19.06;100.00
7182;BME280;3632;42.724;23.298;2023-06-14T05:21:59;95143.41;;;19.05;100.00
7182;BME280;3632;42.724;23.298;2023-06-14T05:24:29;95145.19;;;19.04;100.00
7182;BME280;3632;42.724;23.298;2023-06-14T05:26:57;95116.97;;;18.80;100.00
7182;BME280;3632;42.724;23.298;2023-06-14T05:29:24;95059.53;;;18.41;100.00
7182;BME280;3632;42.724;23.298;2023-06-14T05:31:51;95151.03;;;18.98;100.00
7182;BME280;3632;42.724;23.298;2023-06-14T05:34:18;95239.91;;;19.12;100.00
7182;BME280;3632;42.724;23.298;2023-06-14T05:36:44;95160.63;;;19.27;100.00
7182;BME280;3632;42.724;23.298;2023-06-14T05:39:12;95165.34;;;19.46;100.00
7182;BME280;3632;42.724;23.298;2023-06-14T05:41:40;95157.50;;;19.54;100.00
7182;BME280;3632;42.724;23.298;2023-06-14T05:44:08;95033.63;;;18.71;100.00
7182;BME280;3632;42.724;23.298;2023-06-14T05:46:35;95154.41;;;19.36;100.00
7182;BME280;3632;42.724;23.298;2023-06-14T05:49:01;95159.44;;;19.52;100.00
7182;BME280;3632;42.724;23.298;2023-06-14T05:51:28;95162.75;;;19.61;100.00
7182;BME280;3632;42.724;23.298;2023-06-14T05:53:55;95161.69;;;19.70;100.00
7182;BME280;3632;42.724;23.298;2023-06-14T05:56:22;95059.84;;;18.83;100.00
7182;BME280;3632;42.724;23.298;2023-06-14T05:58:50;95164.97;;;19.49;100.00
7182;BME280;3632;42.724;23.298;2023-06-14T06:01:17;95103.09;;;19.33;100.00
7182;BME280;3632;42.724;23.298;2023-06-14T06:03:45;95190.38;;;19.60;100.00
7182;BME280;3632;42.724;23.298;2023-06-14T06:06:13;95048.97;;;18.88;100.00
7182;BME280;3632;42.724;23.298;2023-06-14T06:08:40;94886.09;;;17.93;100.00
7182;BME280;3632;42.724;23.298;2023-06-14T06:11:07;95168.56;;;19.78;100.00
7182;BME280;3632;42.724;23.298;2023-06-14T06:13:34;95018.16;;;18.86;100.00
7182;BME280;3632;42.724;23.298;2023-06-14T06:16:06;94870.09;;;17.60;100.00
7182;BME280;3632;42.724;23.298;2023-06-14T06:18:33;95179.25;;;20.04;100.00
7182;BME280;3632;42.724;23.298;2023-06-14T06:21:00;95024.31;;;19.14;100.00
7182;BME280;3632;42.724;23.298;2023-06-14T06:23:28;95171.28;;;20.20;100.00
7182;BME280;3632;42.724;23.298;2023-06-14T06:25:55;95178.78;;;20.30;100.00
7182;BME280;3632;42.724;23.298;2023-06-14T06:28:22;95179.66;;;20.37;100.00
7182;BME280;3632;42.724;23.298;2023-06-14T06:30:48;94974.72;;;19.04;100.00
7182;BME280;3632;42.724;23.298;2023-06-14T06:33:17;95177.75;;;20.45;100.00
7182;BME280;3632;42.724;23.298;2023-06-14T06:35:44;95184.56;;;20.46;100.00
7182;BME280;3632;42.724;23.298;2023-06-14T06:38:10;95176.31;;;20.58;100.00
7182;BME280;3632;42.724;23.298;2023-06-14T06:40:37;94957.56;;;19.18;99.98
7182;BME280;3632;42.724;23.298;2023-06-14T06:43:07;95076.66;;;20.11;97.34
7182;BME280;3632;42.724;23.298;2023-06-14T06:45:33;95143.63;;;20.57;96.55
7182;BME280;3632;42.724;23.298;2023-06-14T06:48:00;95179.59;;;20.87;96.48
7182;BME280;3632;42.724;23.298;2023-06-14T06:50:28;95178.69;;;20.95;95.25
7182;BME280;3632;42.724;23.298;2023-06-14T06:52:55;95183.09;;;21.01;94.19
7182;BME280;3632;42.724;23.298;2023-06-14T06:55:22;95184.78;;;21.09;93.53
7182;BME280;3632;42.724;23.298;2023-06-14T06:57:50;95183.66;;;21.18;94.59
7182;BME280;3632;42.724;23.298;2023-06-14T07:00:18;94737.47;;;17.48;95.11
7182;BME280;3632;42.724;23.298;2023-06-14T07:02:47;95228.09;;;20.93;96.82
7182;BME280;3632;42.724;23.298;2023-06-14T07:05:14;95166.44;;;20.68;96.02
7182;BME280;3632;42.724;23.298;2023-06-14T07:07:42;95185.50;;;21.03;97.35
7182;BME280;3632;42.724;23.298;2023-06-14T07:10:10;95181.97;;;21.10;99.01
7182;BME280;3632;42.724;23.298;2023-06-14T07:12:37;95186.06;;;20.98;97.94
7182;BME280;3632;42.724;23.298;2023-06-14T07:15:05;95208.88;;;20.88;97.88
7182;BME280;3632;42.724;23.298;2023-06-14T07:17:33;95112.31;;;20.51;98.21
7182;BME280;3632;42.724;23.298;2023-06-14T07:20:01;95172.59;;;21.09;97.32
7182;BME280;3632;42.724;23.298;2023-06-14T07:22:38;95141.06;;;20.78;97.50
7182;BME280;3632;42.724;23.298;2023-06-14T07:25:10;95181.53;;;21.00;97.08
7182;BME280;3632;42.724;23.298;2023-06-14T07:27:39;95138.22;;;20.01;95.95
7182;BME280;3632;42.724;23.298;2023-06-14T07:30:07;95178.78;;;21.08;95.64
7182;BME280;3632;42.724;23.298;2023-06-14T07:32:35;95172.75;;;21.22;95.74
7182;BME280;3632;42.724;23.298;2023-06-14T07:35:02;94769.16;;;18.59;91.80
7182;BME280;3632;42.724;23.298;2023-06-14T07:37:29;95170.94;;;21.23;92.89
7182;BME280;3632;42.724;23.298;2023-06-14T07:39:56;95076.53;;;20.83;91.76
7182;BME280;3632;42.724;23.298;2023-06-14T07:42:24;94917.66;;;19.71;90.60
7182;BME280;3632;42.724;23.298;2023-06-14T07:44:51;95093.66;;;20.84;90.21
7182;BME280;3632;42.724;23.298;2023-06-14T07:47:19;95176.50;;;21.48;89.66
7182;BME280;3632;42.724;23.298;2023-06-14T07:49:45;95106.22;;;21.29;88.90
7182;BME280;3632;42.724;23.298;2023-06-14T07:52:12;95133.56;;;21.73;89.86
7182;BME280;3632;42.724;23.298;2023-06-14T07:54:39;95190.97;;;22.25;88.46
7182;BME280;3632;42.724;23.298;2023-06-14T07:57:06;95185.66;;;22.47;87.30
7182;BME280;3632;42.724;23.298;2023-06-14T07:59:35;95196.78;;;22.41;86.48
7182;BME280;3632;42.724;23.298;2023-06-14T08:02:02;95190.66;;;22.55;85.68
7182;BME280;3632;42.724;23.298;2023-06-14T08:04:29;95206.53;;;22.73;84.05
7182;BME280;3632;42.724;23.298;2023-06-14T08:06:58;95193.38;;;23.01;83.07
7182;BME280;3632;42.724;23.298;2023-06-14T08:09:30;94917.59;;;21.38;83.11
7182;BME280;3632;42.724;23.298;2023-06-14T08:11:57;94798.94;;;20.73;79.48
7182;BME280;3632;42.724;23.298;2023-06-14T08:14:24;95201.00;;;23.35;78.10
7182;BME280;3632;42.724;23.298;2023-06-14T08:16:52;95197.22;;;23.44;75.73
7182;BME280;3632;42.724;23.298;2023-06-14T08:19:19;95197.63;;;23.48;73.70
7182;BME280;3632;42.724;23.298;2023-06-14T08:21:46;95203.44;;;23.50;73.99
7182;BME280;3632;42.724;23.298;2023-06-14T08:24:12;95112.41;;;22.84;74.75
7182;BME280;3632;42.724;23.298;2023-06-14T08:26:39;95212.59;;;23.26;77.71
7182;BME280;3632;42.724;23.298;2023-06-14T08:29:08;95116.19;;;22.88;79.17
7182;BME280;3632;42.724;23.298;2023-06-14T08:31:35;95202.22;;;23.33;77.79
7182;BME280;3632;42.724;23.298;2023-06-14T08:34:03;95261.22;;;23.12;78.17
7182;BME280;3632;42.724;23.298;2023-06-14T08:36:38;95133.25;;;22.37;78.38
7182;BME280;3632;42.724;23.298;2023-06-14T08:39:05;95224.56;;;22.94;76.84
7182;BME280;3632;42.724;23.298;2023-06-14T08:41:35;95015.09;;;21.32;78.46
7182;BME280;3632;42.724;23.298;2023-06-14T08:44:03;95209.38;;;23.04;78.11
7182;BME280;3632;42.724;23.298;2023-06-14T08:46:31;95184.00;;;23.19;78.34
7182;BME280;3632;42.724;23.298;2023-06-14T08:48:59;95159.00;;;23.12;79.40
7182;BME280;3632;42.724;23.298;2023-06-14T08:51:31;95195.44;;;23.58;76.72
7182;BME280;3632;42.724;23.298;2023-06-14T08:54:00;95165.19;;;23.70;74.40
7182;BME280;3632;42.724;23.298;2023-06-14T08:56:28;95185.97;;;23.83;74.46
7182;BME280;3632;42.724;23.298;2023-06-14T08:58:55;95189.34;;;23.90;78.32
7182;BME280;3632;42.724;23.298;2023-06-14T09:01:23;95186.72;;;24.10;77.26
7182;BME280;3632;42.724;23.298;2023-06-14T09:03:50;94963.66;;;22.95;74.35
7182;BME280;3632;42.724;23.298;2023-06-14T09:06:17;95179.44;;;24.70;73.93
7182;BME280;3632;42.724;23.298;2023-06-14T09:08:47;94849.34;;;22.75;71.14
7182;BME280;3632;42.724;23.298;2023-06-14T09:11:15;95043.22;;;23.87;69.92
7182;BME280;3632;42.724;23.298;2023-06-14T09:13:44;95172.59;;;25.13;72.37
7182;BME280;3632;42.724;23.298;2023-06-14T09:16:11;94991.09;;;23.93;71.40
7182;BME280;3632;42.724;23.298;2023-06-14T09:18:39;95166.50;;;25.44;74.61
7182;BME280;3632;42.724;23.298;2023-06-14T09:21:10;95165.34;;;25.40;66.82
7182;BME280;3632;42.724;23.298;2023-06-14T09:23:37;95171.03;;;25.30;67.73
7182;BME280;3632;42.724;23.298;2023-06-14T09:26:10;95113.34;;;24.64;71.27
7182;BME280;3632;42.724;23.298;2023-06-14T09:28:41;95044.22;;;24.30;74.18
7182;BME280;3632;42.724;23.298;2023-06-14T09:31:10;95167.63;;;25.05;70.84
7182;BME280;3632;42.724;23.298;2023-06-14T09:33:37;95171.28;;;24.97;71.26
7182;BME280;3632;42.724;23.298;2023-06-14T09:36:04;95122.75;;;24.96;74.31
7182;BME280;3632;42.724;23.298;2023-06-14T09:38:30;95166.16;;;25.40;71.13
7182;BME280;3632;42.724;23.298;2023-06-14T09:40:58;95132.00;;;24.92;70.44
7182;BME280;3632;42.724;23.298;2023-06-14T09:43:27;95178.94;;;25.24;72.81
7182;BME280;3632;42.724;23.298;2023-06-14T09:45:54;95163.59;;;25.09;68.32
7182;BME280;3632;42.724;23.298;2023-06-14T09:48:21;95082.66;;;24.35;74.07
7182;BME280;3632;42.724;23.298;2023-06-14T09:50:50;95103.06;;;24.38;75.38
7182;BME280;3632;42.724;23.298;2023-06-14T09:53:21;95120.69;;;24.36;73.72
7182;BME280;3632;42.724;23.298;2023-06-14T09:55:49;95153.88;;;24.53;69.08
7182;BME280;3632;42.724;23.298;2023-06-14T09:58:17;95104.75;;;24.26;70.80
7182;BME280;3632;42.724;23.298;2023-06-14T10:00:50;95146.63;;;24.62;71.33
7182;BME280;3632;42.724;23.298;2023-06-14T10:03:21;95146.28;;;24.83;73.92
7182;BME280;3632;42.724;23.298;2023-06-14T10:05:51;95132.88;;;25.11;71.51
7182;BME280;3632;42.724;23.298;2023-06-14T10:08:19;94946.69;;;23.88;73.32
7182;BME280;3632;42.724;23.298;2023-06-14T10:10:50;94942.78;;;24.35;72.25
7182;BME280;3632;42.724;23.298;2023-06-14T10:13:17;95131.19;;;25.84;67.65
7182;BME280;3632;42.724;23.298;2023-06-14T10:15:56;95063.88;;;25.32;68.89
7182;BME280;3632;42.724;23.298;2023-06-14T10:18:31;95127.59;;;26.22;69.52
7182;BME280;3632;42.724;23.298;2023-06-14T10:21:04;95084.91;;;26.28;67.72
7182;BME280;3632;42.724;23.298;2023-06-14T10:23:37;95118.34;;;26.79;64.89
7182;BME280;3632;42.724;23.298;2023-06-14T10:26:06;95108.28;;;26.23;65.02
7182;BME280;3632;42.724;23.298;2023-06-14T10:28:37;95125.97;;;26.03;66.76
7182;BME280;3632;42.724;23.298;2023-06-14T10:31:06;95126.56;;;25.86;66.70
7182;BME280;3632;42.724;23.298;2023-06-14T10:33:34;95108.00;;;25.76;69.43
7182;BME280;3632;42.724;23.298;2023-06-14T10:36:08;95044.44;;;25.28;67.03
7182;BME280;3632;42.724;23.298;2023-06-14T10:38:37;95116.41;;;25.60;65.55
7182;BME280;3632;42.724;23.298;2023-06-14T10:41:05;95118.53;;;25.45;68.16
7182;BME280;3632;42.724;23.298;2023-06-14T10:43:32;95056.38;;;25.17;69.00
7182;BME280;3632;42.724;23.298;2023-06-14T10:46:17;95120.16;;;25.64;64.73
7182;BME280;3632;42.724;23.298;2023-06-14T10:48:48;95112.25;;;26.07;66.23
7182;BME280;3632;42.724;23.298;2023-06-14T10:51:16;94873.69;;;24.94;65.60
7182;BME280;3632;42.724;23.298;2023-06-14T10:53:46;95096.47;;;26.92;67.92
7182;BME280;3632;42.724;23.298;2023-06-14T10:56:28;94978.97;;;26.67;66.24
7182;BME280;3632;42.724;23.298;2023-06-14T10:58:56;95099.81;;;27.57;59.50
7182;BME280;3632;42.724;23.298;2023-06-14T11:01:32;95094.00;;;27.66;63.59
7182;BME280;3632;42.724;23.298;2023-06-14T11:04:11;95078.03;;;27.80;60.04
7182;BME280;3632;42.724;23.298;2023-06-14T11:06:48;95056.31;;;27.21;62.57
7182;BME280;3632;42.724;23.298;2023-06-14T11:09:46;95080.69;;;28.08;63.13
7182;BME280;3632;42.724;23.298;2023-06-14T11:12:20;95073.09;;;28.35;60.82
7182;BME280;3632;42.724;23.298;2023-06-14T11:14:48;95071.84;;;28.37;60.91
7182;BME280;3632;42.724;23.298;2023-06-14T11:17:16;95068.19;;;28.10;60.83
7182;BME280;3632;42.724;23.298;2023-06-14T11:19:44;95066.03;;;28.35;57.59
7182;BME280;3632;42.724;23.298;2023-06-14T11:22:10;95066.13;;;28.12;56.06
7182;BME280;3632;42.724;23.298;2023-06-14T11:24:37;95069.22;;;27.57;55.71
7182;BME280;3632;42.724;23.298;2023-06-14T11:27:04;95063.03;;;27.17;58.79
7182;BME280;3632;42.724;23.298;2023-06-14T11:29:31;95058.50;;;27.47;61.23
7182;BME280;3632;42.724;23.298;2023-06-14T11:31:58;94941.78;;;27.23;57.26
7182;BME280;3632;42.724;23.298;2023-06-14T11:34:26;94651.56;;;25.38;57.30
7182;BME280;3632;42.724;23.298;2023-06-14T11:36:53;94899.16;;;26.99;59.44
7182;BME280;3632;42.724;23.298;2023-06-14T11:39:24;95032.50;;;28.37;58.39
7182;BME280;3632;42.724;23.298;2023-06-14T11:41:52;95056.38;;;28.69;53.29
7182;BME280;3632;42.724;23.298;2023-06-14T11:44:20;95069.16;;;28.66;52.23
7182;BME280;3632;42.724;23.298;2023-06-14T11:46:47;95055.50;;;28.47;51.18
7182;BME280;3632;42.724;23.298;2023-06-14T11:49:14;95061.91;;;28.56;52.03
7182;BME280;3632;42.724;23.298;2023-06-14T11:51:42;95040.00;;;28.45;53.49
7182;BME280;3632;42.724;23.298;2023-06-14T11:54:10;94999.78;;;28.56;55.94
7182;BME280;3632;42.724;23.298;2023-06-14T11:56:37;95033.09;;;29.23;55.92
7182;BME280;3632;42.724;23.298;2023-06-14T11:59:04;95031.22;;;29.57;53.44
7182;BME280;3632;42.724;23.298;2023-06-14T12:01:31;95031.47;;;29.99;56.62
7182;BME280;3632;42.724;23.298;2023-06-14T12:03:59;95017.16;;;29.68;55.04
7182;BME280;3632;42.724;23.298;2023-06-14T12:06:26;95021.81;;;29.22;53.29
7182;BME280;3632;42.724;23.298;2023-06-14T12:08:59;95014.78;;;29.66;55.26
7182;BME280;3632;42.724;23.298;2023-06-14T12:11:32;94938.84;;;29.65;50.17
7182;BME280;3632;42.724;23.298;2023-06-14T12:13:59;95036.31;;;30.33;52.44
7182;BME280;3632;42.724;23.298;2023-06-14T12:16:30;95001.53;;;30.26;51.26
7182;BME280;3632;42.724;23.298;2023-06-14T12:19:00;95013.09;;;29.99;49.90
7182;BME280;3632;42.724;23.298;2023-06-14T12:21:27;94923.00;;;29.81;49.38
7182;BME280;3632;42.724;23.298;2023-06-14T12:23:54;95013.13;;;30.30;46.34
7182;BME280;3632;42.724;23.298;2023-06-14T12:26:24;94952.44;;;29.57;47.31
7182;BME280;3632;42.724;23.298;2023-06-14T12:28:52;94588.59;;;27.28;48.72
7182;BME280;3632;42.724;23.298;2023-06-14T12:31:18;94942.19;;;29.82;48.76
7182;BME280;3632;42.724;23.298;2023-06-14T12:33:46;94989.56;;;30.40;47.02
7182;BME280;3632;42.724;23.298;2023-06-14T12:36:14;94994.13;;;30.23;44.62
7182;BME280;3632;42.724;23.298;2023-06-14T12:38:41;94988.88;;;30.23;44.63
7182;BME280;3632;42.724;23.298;2023-06-14T12:41:07;94978.47;;;30.38;44.76
7182;BME280;3632;42.724;23.298;2023-06-14T12:43:36;94973.16;;;30.60;46.89
7182;BME280;3632;42.724;23.298;2023-06-14T12:46:03;94963.34;;;30.46;45.63
7182;BME280;3632;42.724;23.298;2023-06-14T12:48:29;94977.81;;;29.73;48.03
7182;BME280;3632;42.724;23.298;2023-06-14T12:50:56;94970.53;;;29.15;49.20
7182;BME280;3632;42.724;23.298;2023-06-14T12:53:23;94968.31;;;28.90;49.88
7182;BME280;3632;42.724;23.298;2023-06-14T12:55:50;94967.22;;;28.52;51.47
7182;BME280;3632;42.724;23.298;2023-06-14T12:58:17;94964.44;;;28.59;54.35
7182;BME280;3632;42.724;23.298;2023-06-14T13:00:46;94960.03;;;28.65;56.58
7182;BME280;3632;42.724;23.298;2023-06-14T13:03:14;94955.13;;;28.35;51.30
7182;BME280;3632;42.724;23.298;2023-06-14T13:05:41;94968.50;;;28.05;53.11
7182;BME280;3632;42.724;23.298;2023-06-14T13:08:08;94969.06;;;27.79;55.80
7182;BME280;3632;42.724;23.298;2023-06-14T13:10:35;94960.91;;;27.63;57.87